Archiv-/Tagesdaten

--Timestamp---	Temp	Chill	HIndex	Humid	Dewpt	Wind	HiWind	WindDir	Rain	Barom	Solar	ET	UV
--------------	----	-----	------	-----	-----	----	------	-------	----	-----	-----	--	--
20071115 00:05	-1.8	-4.3	-1.8	92	-3.0	6	11	315	0.00	1013.481	0	0.000	0
20071115 00:10	-1.8	-4.9	-1.8	92	-3.0	8	19	315	0.00	1013.549	0	0.000	0
20071115 00:15	-1.8	-4.3	-1.8	92	-3.0	6	11	292	0.00	1013.515	0	0.000	0
20071115 00:20	-1.8	-4.3	-1.8	92	-3.0	6	10	315	0.00	1013.549	0	0.000	0
20071115 00:25	-1.8	-1.8	-1.8	92	-3.0	5	11	292	0.00	1013.583	0	0.000	0
20071115 00:30	-1.8	-1.8	-1.8	92	-2.9	5	10	292	0.00	1013.549	0	0.000	0
20071115 00:35	-1.8	-1.8	-1.8	92	-2.9	3	10	292	0.00	1013.549	0	0.000	0
20071115 00:40	-1.8	-1.8	-1.8	92	-2.9	5	11	292	0.00	1013.481	0	0.000	0
20071115 00:45	-1.8	-1.8	-1.8	92	-2.9	5	11	292	0.00	1013.414	0	0.000	0
20071115 00:50	-1.8	-4.2	-1.8	93	-2.8	6	14	292	0.00	1013.515	0	0.000	0
20071115 00:55	-1.8	-1.8	-1.8	93	-2.8	5	11	292	0.00	1013.481	0	0.000	0
20071115 01:00	-1.8	-1.8	-1.8	93	-2.8	5	10	292	0.00	1013.515	0	0.000	0
20071115 01:05	-1.8	-4.2	-1.8	92	-2.9	6	11	315	0.00	1013.515	0	0.000	0
20071115 01:10	-1.8	-4.2	-1.8	93	-2.8	6	13	292	0.00	1013.549	0	0.000	0
20071115 01:15	-1.8	-4.2	-1.8	93	-2.8	6	14	292	0.00	1013.481	0	0.000	0
20071115 01:20	-1.8	-4.2	-1.8	93	-2.8	6	11	292	0.00	1013.481	0	0.000	0
20071115 01:25	-1.8	-4.8	-1.8	93	-2.8	8	13	315	0.00	1013.515	0	0.000	0
20071115 01:30	-1.8	-4.2	-1.8	92	-2.9	6	14	292	0.00	1013.549	0	0.000	0
20071115 01:35	-1.8	-1.8	-1.8	92	-2.9	5	8	292	0.00	1013.549	0	0.000	0
20071115 01:40	-1.8	-4.3	-1.8	92	-3.0	6	10	315	0.00	1013.617	0	0.000	0
20071115 01:45	-1.8	-4.3	-1.8	93	-2.8	6	11	292	0.00	1013.583	0	0.000	0
20071115 01:50	-1.8	-4.3	-1.8	93	-2.8	6	14	315	0.00	1013.617	0	0.000	0
20071115 01:55	-1.8	-4.3	-1.8	93	-2.8	6	11	292	0.00	1013.651	0	0.000	0
20071115 02:00	-1.8	-4.3	-1.8	93	-2.8	6	11	292	0.00	1013.651	0	0.000	0
20071115 02:05	-1.8	-4.3	-1.8	93	-2.8	6	11	292	0.00	1013.820	0	0.000	0
20071115 02:10	-1.8	-4.9	-1.8	93	-2.8	8	11	315	0.00	1013.854	0	0.000	0
20071115 02:15	-1.8	-4.9	-1.8	92	-3.0	8	16	315	0.00	1013.854	0	0.000	0
20071115 02:20	-1.8	-4.9	-1.8	92	-3.0	8	14	315	0.00	1013.820	0	0.000	0
20071115 02:25	-1.9	-5.0	-1.9	92	-3.0	8	11	315	0.00	1013.820	0	0.000	0
20071115 02:30	-1.9	-5.0	-1.9	92	-3.0	8	14	315	0.00	1013.786	0	0.000	0
20071115 02:35	-1.9	-4.4	-1.9	92	-3.0	6	11	315	0.00	1013.820	0	0.000	0
20071115 02:40	-1.9	-4.4	-1.9	92	-3.1	6	11	292	0.00	1013.854	0	0.000	0
20071115 02:45	-1.9	-1.9	-1.9	92	-3.1	5	10	292	0.00	1013.922	0	0.000	0
20071115 02:50	-1.9	-1.9	-1.9	92	-3.1	5	10	292	0.00	1013.955	0	0.000	0
20071115 02:55	-2.0	-4.5	-2.0	92	-3.1	6	10	315	0.00	1013.989	0	0.000	0
20071115 03:00	-2.0	-2.0	-2.0	92	-3.1	5	8	292	0.00	1014.023	0	0.000	0
20071115 03:05	-2.1	-2.1	-2.1	92	-3.2	2	5	292	0.00	1014.023	0	0.000	0
20071115 03:10	-2.1	-2.1	-2.1	92	-3.2	2	3	292	0.00	1014.057	0	0.000	0
20071115 03:15	-2.1	-2.1	-2.1	92	-3.2	2	5	292	0.00	1014.057	0	0.000	0
20071115 03:20	-2.2	-2.2	-2.2	92	-3.3	0	5	337	0.00	1014.023	0	0.000	0
20071115 03:25	-2.2	-2.2	-2.2	92	-3.3	2	5	337	0.00	1014.057	0	0.000	0
20071115 03:30	-2.2	-2.2	-2.2	92	-3.3	2	5	337	0.00	1014.125	0	0.000	0
20071115 03:35	-2.2	-2.2	-2.2	92	-3.3	0	3	0	0.00	1014.125	0	0.000	0
20071115 03:40	-2.2	-2.2	-2.2	92	-3.3	2	5	0	0.00	1014.159	0	0.000	0
20071115 03:45	-2.2	-2.2	-2.2	92	-3.3	2	5	22	0.00	1014.192	0	0.000	0
20071115 03:50	-2.2	-2.2	-2.2	92	-3.3	2	5	0	0.00	1014.226	0	0.000	0
20071115 03:55	-2.3	-2.3	-2.3	92	-3.4	3	5	0	0.00	1014.294	0	0.000	0
20071115 04:00	-2.3	-2.3	-2.3	92	-3.5	2	5	0	0.00	1014.294	0	0.000	0
20071115 04:05	-2.4	-2.4	-2.4	92	-3.5	0	3	0	0.00	1014.294	0	0.000	0
20071115 04:10	-2.4	-2.4	-2.4	92	-3.6	0	3	337	0.00	1014.294	0	0.000	0
20071115 04:15	-2.5	-2.5	-2.5	92	-3.6	0	2	337	0.00	1014.294	0	0.000	0
20071115 04:20	-2.6	-2.6	-2.6	92	-3.7	0	2	337	0.00	1014.463	0	0.000	0
20071115 04:25	-2.7	-2.7	-2.7	92	-3.8	0	3	337	0.00	1014.565	0	0.000	0
20071115 04:30	-2.7	-2.7	-2.7	92	-3.8	0	2	337	0.00	1014.666	0	0.000	0
20071115 04:35	-2.8	-2.8	-2.8	92	-3.9	0	5	337	0.00	1014.666	0	0.000	0
20071115 04:40	-2.7	-2.7	-2.7	93	-3.6	3	8	315	0.00	1014.700	0	0.000	0
20071115 04:45	-2.6	-2.6	-2.6	93	-3.5	3	6	315	0.00	1014.768	0	0.000	0
20071115 04:50	-2.5	-2.5	-2.5	93	-3.5	5	6	292	0.00	1014.633	0	0.000	0
20071115 04:55	-2.4	-2.4	-2.4	93	-3.4	2	6	315	0.00	1014.700	0	0.000	0
20071115 05:00	-2.5	-2.5	-2.5	93	-3.5	2	5	315	0.00	1014.734	0	0.000	0
20071115 05:05	-2.6	-2.6	-2.6	93	-3.6	2	5	315	0.00	1014.937	0	0.000	0
20071115 05:10	-2.8	-2.8	-2.8	92	-3.9	2	5	315	0.00	1014.971	0	0.000	0
20071115 05:15	-2.9	-2.9	-2.9	92	-4.1	0	3	315	0.00	1015.005	0	0.000	0
20071115 05:20	-3.1	-3.1	-3.1	92	-4.2	0	3	315	0.00	1015.073	0	0.000	0
20071115 05:25	-3.1	-3.1	-3.1	92	-4.2	2	5	315	0.00	1015.039	0	0.000	0
20071115 05:30	-2.9	-2.9	-2.9	93	-3.9	3	5	0	0.00	1015.208	0	0.000	0
20071115 05:35	-2.8	-2.8	-2.8	93	-3.7	3	6	0	0.00	1015.208	0	0.000	0
20071115 05:40	-2.7	-2.7	-2.7	93	-3.6	2	5	22	0.00	1015.276	0	0.000	0
20071115 05:45	-2.6	-2.6	-2.6	93	-3.6	2	3	0	0.00	1015.276	0	0.000	0
20071115 05:50	-2.6	-2.6	-2.6	93	-3.6	2	5	0	0.00	1015.276	0	0.000	0
20071115 05:55	-2.6	-2.6	-2.6	93	-3.6	2	5	0	0.00	1015.344	0	0.000	0
20071115 06:00	-2.7	-2.7	-2.7	93	-3.6	2	5	0	0.00	1015.411	0	0.000	0
20071115 06:05	-2.7	-2.7	-2.7	93	-3.6	2	5	0	0.00	1015.615	0	0.000	0
20071115 06:10	-2.7	-2.7	-2.7	93	-3.6	2	5	0	0.00	1015.649	0	0.000	0
20071115 06:15	-2.7	-2.7	-2.7	93	-3.6	2	5	22	0.00	1015.784	0	0.000	0
20071115 06:20	-2.7	-2.7	-2.7	93	-3.6	2	5	22	0.00	1015.784	0	0.000	0
20071115 06:25	-2.7	-2.7	-2.7	93	-3.7	2	3	22	0.00	1015.750	0	0.000	0
20071115 06:30	-2.7	-2.7	-2.7	93	-3.7	2	5	0	0.00	1015.852	0	0.000	0
20071115 06:35	-2.8	-2.8	-2.8	93	-3.7	2	3	0	0.00	1015.886	0	0.000	0
20071115 06:40	-2.8	-2.8	-2.8	93	-3.8	0	2	0	0.00	1015.886	0	0.000	0
20071115 06:45	-2.8	-2.8	-2.8	93	-3.8	0	3	0	0.00	1015.987	0	0.000	0
20071115 06:50	-2.8	-2.8	-2.8	93	-3.8	0	0	0	0.00	1016.021	0	0.000	0
20071115 06:55	-2.8	-2.8	-2.8	93	-3.8	0	2	0	0.00	1016.123	0	0.000	0
20071115 07:00	-2.9	-2.9	-2.9	93	-3.9	0	2	0	0.00	1016.123	0	0.000	0
20071115 07:05	-2.9	-2.9	-2.9	93	-3.9	0	2	0	0.00	1016.190	0	0.000	0
20071115 07:10	-2.9	-2.9	-2.9	93	-3.9	0	3	0	0.00	1016.292	0	0.000	0
20071115 07:15	-2.9	-2.9	-2.9	93	-3.9	2	3	0	0.00	1016.360	0	0.000	0
20071115 07:20	-2.9	-2.9	-2.9	93	-3.9	0	3	0	0.00	1016.427	0	0.000	0
20071115 07:25	-2.9	-2.9	-2.9	93	-3.9	0	3	0	0.00	1016.427	0	0.000	0
20071115 07:30	-2.9	-2.9	-2.9	93	-3.9	0	2	0	0.00	1016.597	0	0.000	0
20071115 07:35	-3.0	-3.0	-3.0	93	-4.0	0	3	0	0.00	1016.698	0	0.000	0
20071115 07:40	-3.0	-3.0	-3.0	93	-4.0	0	0	0	0.00	1016.800	0	0.000	0
20071115 07:45	-3.1	-3.1	-3.1	93	-4.1	0	2	0	0.00	1016.868	0	0.000	0
20071115 07:50	-3.1	-3.1	-3.1	93	-4.1	2	5	0	0.00	1017.037	0	0.000	0
20071115 07:55	-3.1	-3.1	-3.1	93	-4.1	0	3	0	0.00	1017.105	0	0.000	0
20071115 08:00	-3.1	-3.1	-3.1	93	-4.0	0	3	0	0.00	1017.105	0	0.000	0
20071115 08:05	-3.1	-3.1	-3.1	93	-4.0	2	5	0	0.00	1017.206	4	0.000	0
20071115 08:10	-2.9	-2.9	-2.9	93	-3.9	2	5	0	0.00	1017.342	5	0.000	0
20071115 08:15	-2.8	-2.8	-2.8	93	-3.8	2	5	0	0.00	1017.342	7	0.000	0
20071115 08:20	-2.7	-2.7	-2.7	93	-3.7	0	3	0	0.00	1017.409	9	0.000	0
20071115 08:25	-2.7	-2.7	-2.7	93	-3.6	0	2	0	0.00	1017.477	11	0.000	0
20071115 08:30	-2.6	-2.6	-2.6	93	-3.6	0	2	0	0.00	1017.613	9	0.000	0
20071115 08:35	-2.6	-2.6	-2.6	93	-3.5	0	0	0	0.00	1017.714	12	0.000	0
20071115 08:40	-2.4	-2.4	-2.4	93	-3.4	0	2	0	0.00	1017.782	17	0.000	0
20071115 08:45	-2.3	-2.3	-2.3	93	-3.3	0	2	0	0.00	1017.850	17	0.000	0
20071115 08:50	-2.3	-2.3	-2.3	92	-3.4	0	2	0	0.00	1017.884	13	0.000	0
20071115 08:55	-2.2	-2.2	-2.2	92	-3.3	0	2	0	0.00	1017.884	15	0.000	0
20071115 09:00	-2.2	-2.2	-2.2	92	-3.3	0	2	0	0.00	1017.951	17	0.000	0
20071115 09:05	-2.1	-2.1	-2.1	92	-3.2	2	3	337	0.00	1017.917	18	0.000	0
20071115 09:10	-2.1	-2.1	-2.1	92	-3.2	0	2	337	0.00	1018.053	16	0.000	0
20071115 09:15	-1.9	-1.9	-1.9	92	-3.1	0	5	337	0.00	1018.053	18	0.000	0
20071115 09:20	-1.8	-1.8	-1.8	92	-3.0	0	3	337	0.00	1017.985	20	0.000	0
20071115 09:25	-1.8	-1.8	-1.8	91	-3.0	2	3	0	0.00	1018.019	23	0.000	0
20071115 09:30	-1.8	-1.8	-1.8	91	-3.0	0	3	0	0.00	1018.087	22	0.000	0
20071115 09:35	-1.7	-1.7	-1.7	91	-3.0	0	2	0	0.00	1018.121	26	0.000	0
20071115 09:40	-1.7	-1.7	-1.7	90	-3.1	0	0	0	0.00	1018.121	26	0.000	0
20071115 09:45	-1.8	-1.8	-1.8	89	-3.3	0	5	0	0.00	1018.154	26	0.000	0
20071115 09:50	-1.8	-1.8	-1.8	90	-3.3	2	5	0	0.00	1018.290	34	0.000	0
20071115 09:55	-1.8	-1.8	-1.8	90	-3.2	3	6	0	0.00	1018.392	32	0.000	0
20071115 10:00	-1.8	-1.8	-1.8	90	-3.2	2	6	0	0.00	1018.459	25	0.000	0
20071115 10:05	-1.7	-1.7	-1.7	89	-3.3	3	8	22	0.00	1018.527	28	0.000	0
20071115 10:10	-1.8	-1.8	-1.8	89	-3.3	3	8	0	0.00	1018.561	31	0.000	0
20071115 10:15	-1.7	-1.7	-1.7	89	-3.3	3	8	0	0.00	1018.629	32	0.000	0
20071115 10:20	-1.7	-1.7	-1.7	89	-3.2	3	8	22	0.00	1018.696	29	0.000	0
20071115 10:25	-1.7	-1.7	-1.7	88	-3.4	3	8	0	0.00	1018.798	24	0.000	0
20071115 10:30	-1.8	-1.8	-1.8	88	-3.5	5	8	22	0.00	1018.832	27	0.000	0
20071115 10:35	-1.8	-1.8	-1.8	89	-3.3	3	6	22	0.00	1018.866	37	0.000	0
20071115 10:40	-1.7	-1.7	-1.7	89	-3.3	3	6	22	0.00	1018.899	37	0.000	0
20071115 10:45	-1.7	-1.7	-1.7	89	-3.2	5	10	22	0.00	1018.899	62	0.000	0
20071115 10:50	-1.4	-1.4	-1.4	88	-3.2	5	8	22	0.00	1018.967	96	0.000	0
20071115 10:55	-1.2	-1.2	-1.2	88	-2.9	5	10	0	0.00	1019.103	102	0.000	0
20071115 11:00	-1.2	-3.5	-1.2	87	-3.0	6	10	22	0.00	1019.069	71	0.020	0
20071115 11:05	-1.2	-1.2	-1.2	87	-3.1	5	11	22	0.00	1019.103	67	0.000	0
20071115 11:10	-1.2	-3.6	-1.2	87	-3.1	6	14	22	0.20	1019.103	60	0.000	0
20071115 11:15	-1.2	-1.2	-1.2	87	-3.0	5	10	22	0.00	1019.103	111	0.000	0
20071115 11:20	-1.0	-1.0	-1.0	87	-2.9	5	10	45	0.20	1019.137	147	0.000	0
20071115 11:25	-0.9	-3.2	-0.9	87	-2.8	6	11	22	0.20	1019.137	108	0.000	0
20071115 11:30	-0.9	-0.9	-0.9	87	-2.8	5	11	22	0.00	1019.170	54	0.000	0
20071115 11:35	-1.1	-3.4	-1.1	86	-3.1	6	13	22	0.20	1019.170	52	0.000	0
20071115 11:40	-1.2	-3.5	-1.2	87	-3.0	6	11	22	0.00	1019.137	105	0.000	0
20071115 11:45	-1.1	-3.5	-1.1	86	-3.1	6	11	22	0.20	1019.137	139	0.000	0
20071115 11:50	-1.2	-1.2	-1.2	86	-3.2	5	11	22	0.00	1019.103	85	0.000	0
20071115 11:55	-1.2	-1.2	-1.2	86	-3.2	3	6	45	0.00	1019.103	106	0.000	0
20071115 12:00	-1.2	-1.2	-1.2	86	-3.3	3	6	22	0.00	1019.170	107	0.020	0
20071115 12:05	-1.2	-1.2	-1.2	86	-3.2	5	10	22	0.00	1019.170	189	0.000	1
20071115 12:10	-1.1	-1.1	-1.1	86	-3.1	5	8	45	0.00	1019.170	324	0.000	1
20071115 12:15	-0.8	-0.8	-0.8	86	-2.9	5	11	22	0.20	1019.272	389	0.000	1
20071115 12:20	-0.8	-0.8	-0.8	85	-3.0	5	8	22	0.00	1019.103	222	0.000	1
20071115 12:25	-0.8	-3.1	-0.8	84	-3.1	6	11	22	0.00	1019.103	273	0.000	1
20071115 12:30	-0.7	-0.7	-0.7	83	-3.2	5	8	45	0.00	1019.103	298	0.000	1
20071115 12:35	-0.6	-0.6	-0.6	83	-3.1	5	8	67	0.20	1018.967	279	0.000	1
20071115 12:40	-0.6	-0.6	-0.6	82	-3.3	3	8	67	0.00	1019.001	125	0.000	0
20071115 12:45	-0.7	-0.7	-0.7	82	-3.4	5	8	22	0.00	1019.035	77	0.000	0
20071115 12:50	-0.8	-3.1	-0.8	83	-3.4	6	16	22	0.00	1019.001	43	0.000	0
20071115 12:55	-1.1	-4.0	-1.1	82	-3.7	8	18	22	0.00	1019.204	33	0.000	0
20071115 13:00	-1.3	-4.2	-1.3	83	-3.8	8	16	22	0.00	1019.306	52	0.060	0
20071115 13:05	-1.3	-4.3	-1.3	83	-3.8	8	16	22	0.20	1019.340	71	0.000	1
20071115 13:10	-1.3	-3.7	-1.3	83	-3.8	6	14	22	0.00	1019.340	67	0.000	1
20071115 13:15	-1.3	-1.3	-1.3	83	-3.8	5	10	22	0.00	1019.306	67	0.000	1
20071115 13:20	-1.3	-1.3	-1.3	83	-3.8	5	8	45	0.00	1019.306	98	0.000	1
20071115 13:25	-1.3	-1.3	-1.3	84	-3.7	3	6	45	0.00	1019.374	79	0.000	1
20071115 13:30	-1.3	-1.3	-1.3	81	-4.1	5	11	22	0.00	1019.407	91	0.000	1
20071115 13:35	-1.3	-3.7	-1.3	80	-4.3	6	10	22	0.00	1019.475	104	0.000	1
20071115 13:40	-1.2	-1.2	-1.2	81	-4.1	5	8	45	0.00	1019.374	83	0.000	1
20071115 13:45	-1.1	-1.1	-1.1	80	-4.1	5	10	22	0.00	1019.441	151	0.000	1
20071115 13:50	-0.9	-0.9	-0.9	80	-4.0	3	6	45	0.00	1019.441	179	0.000	1
20071115 13:55	-0.6	-2.8	-0.6	80	-3.6	6	10	45	0.00	1019.306	426	0.000	0
20071115 14:00	-0.5	-2.8	-0.5	79	-3.7	6	10	22	0.00	1019.238	94	0.040	0
20071115 14:05	-0.7	-2.9	-0.7	78	-4.0	6	11	22	0.00	1019.374	90	0.000	0
20071115 14:10	-0.7	-3.6	-0.7	77	-4.2	8	16	45	0.00	1019.475	153	0.000	0
20071115 14:15	-0.7	-2.9	-0.7	77	-4.2	6	11	45	0.00	1019.577	143	0.000	0
20071115 14:20	-0.7	-0.7	-0.7	77	-4.2	5	10	45	0.00	1019.543	57	0.000	0
20071115 14:25	-0.7	-0.7	-0.7	79	-3.8	3	8	0	0.00	1019.509	28	0.000	0
20071115 14:30	-0.8	-3.7	-0.8	80	-3.8	8	16	22	0.00	1019.645	28	0.000	0
20071115 14:35	-1.2	-4.1	-1.2	80	-4.2	8	14	45	0.00	1019.678	36	0.000	0
20071115 14:40	-1.5	-4.5	-1.5	83	-4.0	8	16	67	0.20	1019.882	46	0.000	0
20071115 14:45	-1.7	-5.7	-1.7	84	-4.1	11	18	67	0.00	1019.949	42	0.000	0
20071115 14:50	-1.9	-5.5	-1.9	86	-4.0	10	18	67	0.00	1020.051	25	0.000	0
20071115 14:55	-2.2	-4.7	-2.2	87	-4.0	6	11	45	0.00	1020.152	18	0.000	0
20071115 15:00	-2.3	-2.3	-2.3	88	-4.0	5	10	22	0.00	1020.220	19	0.020	0
20071115 15:05	-2.3	-2.3	-2.3	90	-3.7	5	8	22	0.00	1020.288	11	0.000	0
20071115 15:10	-2.4	-5.0	-2.4	90	-3.9	6	13	22	0.00	1020.322	9	0.000	0
20071115 15:15	-2.5	-2.5	-2.5	91	-3.8	3	8	45	0.00	1020.423	11	0.000	0
20071115 15:20	-2.6	-5.1	-2.6	91	-3.8	6	11	67	0.00	1020.525	14	0.000	0
20071115 15:25	-2.7	-5.3	-2.7	91	-4.0	6	14	45	0.00	1020.593	16	0.000	0
20071115 15:30	-2.8	-2.8	-2.8	91	-4.1	5	8	67	0.00	1020.627	13	0.000	0
20071115 15:35	-2.9	-5.6	-2.9	91	-4.2	6	10	67	0.00	1020.660	14	0.000	0
20071115 15:40	-2.9	-2.9	-2.9	91	-4.2	3	6	67	0.00	1020.694	18	0.000	0
20071115 15:45	-2.8	-2.8	-2.8	90	-4.2	2	5	45	0.00	1020.762	18	0.000	0
20071115 15:50	-2.8	-2.8	-2.8	90	-4.2	2	6	22	0.00	1020.728	15	0.000	0
20071115 15:55	-2.7	-2.7	-2.7	90	-4.1	0	3	22	0.00	1020.796	14	0.000	0
20071115 16:00	-2.7	-2.7	-2.7	90	-4.1	0	2	22	0.00	1020.830	12	0.000	0
20071115 16:05	-2.7	-2.7	-2.7	90	-4.1	2	3	22	0.00	1020.931	9	0.000	0
20071115 16:10	-2.7	-2.7	-2.7	90	-4.1	0	0	22	0.00	1020.965	8	0.000	0
20071115 16:15	-2.7	-2.7	-2.7	90	-4.1	0	0	22	0.00	1021.033	6	0.000	0
20071115 16:20	-2.7	-2.7	-2.7	90	-4.1	0	0	22	0.00	1021.134	2	0.000	0
20071115 16:25	-2.7	-2.7	-2.7	90	-4.1	0	2	22	0.00	1021.134	0	0.000	0
20071115 16:30	-2.7	-2.7	-2.7	90	-4.1	0	3	22	0.00	1021.202	0	0.000	0
20071115 16:35	-2.7	-2.7	-2.7	91	-3.9	2	5	315	0.00	1021.202	0	0.000	0
20071115 16:40	-2.6	-2.6	-2.6	91	-3.9	2	5	315	0.00	1021.236	0	0.000	0
20071115 16:45	-2.6	-2.6	-2.6	91	-3.9	2	3	270	0.00	1021.304	0	0.000	0
20071115 16:50	-2.6	-2.6	-2.6	91	-3.8	2	3	270	0.00	1021.405	0	0.000	0
20071115 16:55	-2.7	-2.7	-2.7	88	-4.4	3	6	45	0.00	1021.439	0	0.000	0
20071115 17:00	-2.6	-2.6	-2.6	89	-4.2	2	5	45	0.00	1021.507	0	0.000	0
20071115 17:05	-2.6	-2.6	-2.6	90	-4.0	2	5	337	0.00	1021.473	0	0.000	0
20071115 17:10	-2.6	-2.6	-2.6	90	-4.0	0	3	337	0.00	1021.541	0	0.000	0
20071115 17:15	-2.6	-2.6	-2.6	90	-4.0	0	3	337	0.00	1021.575	0	0.000	0
20071115 17:20	-2.7	-2.7	-2.7	89	-4.2	2	8	337	0.00	1021.676	0	0.000	0
20071115 17:25	-2.8	-2.8	-2.8	88	-4.5	3	6	0	0.00	1021.778	0	0.000	0
20071115 17:30	-2.9	-2.9	-2.9	88	-4.6	2	6	0	0.00	1021.846	0	0.000	0
20071115 17:35	-3.1	-3.1	-3.1	88	-4.8	3	6	0	0.00	1021.947	0	0.000	0
20071115 17:40	-3.2	-3.2	-3.2	88	-4.9	3	6	0	0.00	1022.117	0	0.000	0
20071115 17:45	-3.2	-3.2	-3.2	88	-4.9	3	6	0	0.00	1022.218	0	0.000	0
20071115 17:50	-3.3	-3.3	-3.3	88	-5.0	3	6	0	0.00	1022.320	0	0.000	0
20071115 17:55	-3.3	-3.3	-3.3	88	-5.0	3	6	0	0.00	1022.387	0	0.000	0
20071115 18:00	-3.3	-3.3	-3.3	88	-5.0	3	5	0	0.00	1022.455	0	0.000	0
20071115 18:05	-3.3	-3.3	-3.3	88	-5.0	2	3	0	0.00	1022.523	0	0.000	0
20071115 18:10	-3.4	-3.4	-3.4	88	-5.1	0	3	0	0.00	1022.591	0	0.000	0
20071115 18:15	-3.5	-3.5	-3.5	88	-5.2	0	3	0	0.00	1022.591	0	0.000	0
20071115 18:20	-3.6	-3.6	-3.6	89	-5.2	0	2	0	0.00	1022.726	0	0.000	0
20071115 18:25	-3.7	-3.7	-3.7	89	-5.2	0	2	0	0.00	1022.760	0	0.000	0
20071115 18:30	-3.7	-3.7	-3.7	89	-5.3	0	2	0	0.00	1022.760	0	0.000	0
20071115 18:35	-3.8	-3.8	-3.8	89	-5.4	0	2	0	0.00	1022.828	0	0.000	0
20071115 18:40	-3.9	-3.9	-3.9	89	-5.5	2	3	0	0.00	1022.828	0	0.000	0
20071115 18:45	-4.0	-4.0	-4.0	89	-5.5	0	3	0	0.00	1022.895	0	0.000	0
20071115 18:50	-4.1	-4.1	-4.1	90	-5.5	0	2	0	0.00	1022.895	0	0.000	0
20071115 18:55	-4.2	-4.2	-4.2	90	-5.6	0	2	0	0.00	1022.862	0	0.000	0
20071115 19:00	-4.3	-4.3	-4.3	90	-5.7	0	2	0	0.00	1023.031	0	0.000	0
20071115 19:05	-4.4	-4.4	-4.4	90	-5.8	0	2	0	0.00	1023.065	0	0.000	0
20071115 19:10	-4.6	-4.6	-4.6	90	-6.0	0	3	0	0.00	1023.132	0	0.000	0
20071115 19:15	-4.6	-4.6	-4.6	91	-5.9	0	3	0	0.00	1023.200	0	0.000	0
20071115 19:20	-4.7	-4.7	-4.7	91	-6.0	0	2	0	0.00	1023.166	0	0.000	0
20071115 19:25	-4.7	-4.7	-4.7	92	-5.8	0	0	0	0.00	1023.302	0	0.000	0
20071115 19:30	-4.7	-4.7	-4.7	91	-6.0	0	0	0	0.00	1023.403	0	0.000	0
20071115 19:35	-4.8	-4.8	-4.8	91	-6.0	0	0	0	0.00	1023.370	0	0.000	0
20071115 19:40	-4.7	-4.7	-4.7	92	-5.8	0	2	0	0.00	1023.471	0	0.000	0
20071115 19:45	-4.8	-4.8	-4.8	92	-5.9	0	0	0	0.00	1023.471	0	0.000	0
20071115 19:50	-4.9	-4.9	-4.9	91	-6.1	0	2	0	0.00	1023.437	0	0.000	0
20071115 19:55	-5.0	-5.0	-5.0	91	-6.2	0	2	0	0.00	1023.437	0	0.000	0
20071115 20:00	-5.1	-5.1	-5.1	91	-6.3	0	0	0	0.00	1023.471	0	0.000	0
20071115 20:05	-5.2	-5.2	-5.2	91	-6.4	0	2	0	0.00	1023.573	0	0.000	0
20071115 20:10	-5.3	-5.3	-5.3	91	-6.5	3	6	0	0.00	1023.674	0	0.000	0
20071115 20:15	-5.4	-5.4	-5.4	91	-6.7	3	5	315	0.00	1023.674	0	0.000	0
20071115 20:20	-5.7	-5.7	-5.7	90	-7.0	2	3	315	0.00	1023.674	0	0.000	0
20071115 20:25	-5.8	-5.8	-5.8	91	-7.1	0	2	315	0.00	1023.776	0	0.000	0
20071115 20:30	-6.0	-6.0	-6.0	91	-7.2	0	3	315	0.00	1023.945	0	0.000	0
20071115 20:35	-6.1	-6.1	-6.1	91	-7.3	0	2	315	0.00	1023.911	0	0.000	0
20071115 20:40	-6.2	-6.2	-6.2	91	-7.4	0	2	315	0.00	1023.945	0	0.000	0
20071115 20:45	-6.2	-6.2	-6.2	92	-7.3	0	0	315	0.00	1023.979	0	0.000	0
20071115 20:50	-6.2	-6.2	-6.2	92	-7.3	0	0	315	0.00	1024.081	0	0.000	0
20071115 20:55	-6.2	-6.2	-6.2	92	-7.3	0	2	315	0.00	1024.081	0	0.000	0
20071115 21:00	-6.1	-6.1	-6.1	92	-7.2	0	2	315	0.00	1024.182	0	0.000	0
20071115 21:05	-5.9	-5.9	-5.9	93	-6.9	0	2	315	0.00	1024.013	0	0.000	0
20071115 21:10	-5.8	-5.8	-5.8	93	-6.8	0	2	315	0.00	1024.081	0	0.000	0
20071115 21:15	-5.8	-5.8	-5.8	93	-6.8	0	3	315	0.00	1024.148	0	0.000	0
20071115 21:20	-5.8	-5.8	-5.8	92	-6.9	2	3	315	0.00	1024.318	0	0.000	0
20071115 21:25	-5.8	-5.8	-5.8	92	-6.9	0	3	315	0.00	1024.284	0	0.000	0
20071115 21:30	-5.8	-5.8	-5.8	93	-6.7	0	3	315	0.00	1024.453	0	0.000	0
20071115 21:35	-5.7	-5.7	-5.7	92	-6.8	0	2	315	0.00	1024.453	0	0.000	0
20071115 21:40	-5.7	-5.7	-5.7	92	-6.8	0	2	315	0.00	1024.419	0	0.000	0
20071115 21:45	-5.6	-5.6	-5.6	93	-6.5	0	2	315	0.00	1024.453	0	0.000	0
20071115 21:50	-5.6	-5.6	-5.6	92	-6.6	0	2	315	0.00	1024.487	0	0.000	0
20071115 21:55	-5.6	-5.6	-5.6	92	-6.7	0	0	315	0.00	1024.555	0	0.000	0
20071115 22:00	-5.7	-5.7	-5.7	91	-7.0	0	0	315	0.00	1024.589	0	0.000	0
20071115 22:05	-6.0	-6.0	-6.0	90	-7.4	0	2	315	0.00	1024.690	0	0.000	0
20071115 22:10	-6.2	-6.2	-6.2	90	-7.6	0	2	315	0.00	1024.792	0	0.000	0
20071115 22:15	-6.4	-6.4	-6.4	90	-7.8	0	2	315	0.00	1024.724	0	0.000	0
20071115 22:20	-6.6	-6.6	-6.6	91	-7.8	0	0	315	0.00	1024.758	0	0.000	0
20071115 22:25	-6.7	-6.7	-6.7	91	-7.9	0	5	202	0.00	1024.826	0	0.000	0
20071115 22:30	-6.8	-6.8	-6.8	91	-8.1	3	5	202	0.00	1024.859	0	0.000	0
20071115 22:35	-6.8	-6.8	-6.8	92	-7.9	2	5	202	0.00	1024.859	0	0.000	0
20071115 22:40	-6.8	-6.8	-6.8	92	-7.9	2	5	202	0.00	1024.859	0	0.000	0
20071115 22:45	-6.7	-6.7	-6.7	92	-7.8	2	5	202	0.00	1024.859	0	0.000	0
20071115 22:50	-6.8	-6.8	-6.8	91	-8.0	2	5	202	0.00	1024.893	0	0.000	0
20071115 22:55	-6.8	-6.8	-6.8	91	-8.1	2	5	202	0.00	1024.961	0	0.000	0
20071115 23:00	-6.8	-6.8	-6.8	91	-8.1	2	5	202	0.00	1025.029	0	0.000	0
20071115 23:05	-6.8	-6.8	-6.8	91	-8.1	0	3	202	0.00	1025.029	0	0.000	0
20071115 23:10	-6.9	-6.9	-6.9	91	-8.1	0	3	202	0.00	1025.097	0	0.000	0
20071115 23:15	-6.9	-6.9	-6.9	91	-8.1	2	3	202	0.00	1025.097	0	0.000	0
20071115 23:20	-6.8	-6.8	-6.8	92	-7.9	2	6	202	0.00	1025.164	0	0.000	0
20071115 23:25	-6.8	-6.8	-6.8	92	-7.9	2	5	202	0.00	1025.198	0	0.000	0
20071115 23:30	-6.9	-6.9	-6.9	91	-8.2	2	5	202	0.00	1025.130	0	0.000	0
20071115 23:35	-7.1	-7.1	-7.1	91	-8.3	2	6	202	0.00	1025.401	0	0.000	0
20071115 23:40	-7.1	-7.1	-7.1	91	-8.3	2	5	202	0.00	1025.469	0	0.000	0
20071115 23:45	-7.2	-7.2	-7.2	91	-8.4	2	5	202	0.00	1025.503	0	0.000	0
20071115 23:50	-7.2	-7.2	-7.2	91	-8.4	2	6	202	0.00	1025.503	0	0.000	0
20071115 23:55	-7.3	-7.3	-7.3	91	-8.5	2	3	202	0.00	1025.571	0	0.000	0
20071115 24:00	-7.3	-7.3	-7.3	91	-8.5	0	3	202	0.00	1025.638	0	0.000	0



Please note the license to use and transfer of this data:
http://creativecommons.org/licenses/by-nc-sa/3.0/deed.en

Bitte beachten sie die Lizenz zur Verwertung und Weitergabe der Daten:
http://creativecommons.org/licenses/by-nc-sa/3.0/deed.de

zurück zur Übersicht der Archivdaten (Monats und Tagesdaten)

Cookies helfen bei der Bereitstellung von Inhalten. Durch die Nutzung dieser Seiten erklärst du dich damit einverstanden, dass Cookies auf deinem Rechner gespeichert werden. Weitere Information